Altheimer, Arkansas
Current Conditions -  °F | °C
As of 3:53 PM on Thursday 27 Nov 2014 (Local Time) from KPBF Reporting Station
Clear Clear  
Wind Chill: 42°   Ceiling: Unl
Heat Index: 45°   Visibility: 10mi
Dew Point: 27°   Wind: 6mph
Humidity: 49%   Direction: 50°NE
Pressure: 30.49"   Gusts: NA
Location:  34.32°N, 91.85°W
Report Text: KPBF 272153Z AUTO 05005KT 10SM CLR 07/M03 A3049 RMK AO2 RAB05E20 SLP323 P0000 T00721028
Loading
Personal Weather Stations






























Interactive Weather Map New forecast layout! Learn more

10-Day Weather Forecast

Advertisements
Track Severe Weather on mobile